createdAt,value
2022-09-26T00:01:55.104Z,26.70
2022-09-26T00:04:32.826Z,27.27
2022-09-26T00:07:04.948Z,25.00
2022-09-26T00:09:47.055Z,23.88
2022-09-26T00:12:17.019Z,25.48
2022-09-26T00:14:51.865Z,25.05
2022-09-26T00:17:22.167Z,25.30
2022-09-26T00:19:51.581Z,23.10
2022-09-26T00:22:23.947Z,22.88
2022-09-26T00:24:54.245Z,23.83
2022-09-26T00:27:23.899Z,23.50
2022-09-26T00:29:59.933Z,24.52
2022-09-26T00:32:29.927Z,23.33
2022-09-26T00:35:00.658Z,22.95
2022-09-26T00:37:33.354Z,21.90
2022-09-26T00:40:10.159Z,29.35
2022-09-26T00:42:40.385Z,21.55
2022-09-26T00:45:11.375Z,21.15
2022-09-26T00:47:52.923Z,21.15
2022-09-26T00:50:27.688Z,22.25
2022-09-26T00:53:40.659Z,21.00
2022-09-26T00:56:19.010Z,19.45
2022-09-26T00:58:57.979Z,16.52
2022-09-26T01:01:29.419Z,15.95
2022-09-26T01:04:00.299Z,15.00
2022-09-26T01:06:29.822Z,14.27
2022-09-26T01:09:04.184Z,12.02
2022-09-26T01:11:36.739Z,11.60
2022-09-26T01:14:09.895Z,12.35
2022-09-26T01:16:41.305Z,11.13
2022-09-26T01:19:38.321Z,10.93
2022-09-26T01:22:44.553Z,9.82
2022-09-26T01:25:36.477Z,8.67
2022-09-26T01:28:24.084Z,8.10
2022-09-26T01:31:03.833Z,7.95
2022-09-26T01:34:11.077Z,7.63
2022-09-26T01:37:29.122Z,6.35
2022-09-26T01:40:15.063Z,6.10
2022-09-26T01:43:03.303Z,6.70
2022-09-26T01:46:04.925Z,5.57
2022-09-26T01:48:49.362Z,6.10
2022-09-26T01:51:48.177Z,6.07
2022-09-26T01:54:29.030Z,6.57
2022-09-26T01:57:01.766Z,7.05
2022-09-26T01:59:38.393Z,5.80
2022-09-26T02:02:16.806Z,5.88
2022-09-26T02:04:50.318Z,5.85
2022-09-26T02:07:33.877Z,6.10
2022-09-26T02:10:16.058Z,7.30
2022-09-26T02:12:51.820Z,7.03
2022-09-26T02:15:25.321Z,7.03
2022-09-26T02:18:04.284Z,7.80
2022-09-26T02:20:38.695Z,8.05
2022-09-26T02:23:08.340Z,8.10
2022-09-26T02:25:38.512Z,7.93
2022-09-26T02:28:07.924Z,8.77
2022-09-26T02:30:39.016Z,8.25
2022-09-26T02:33:08.711Z,7.55
2022-09-26T02:35:56.611Z,8.15
2022-09-26T02:38:34.201Z,7.55
2022-09-26T02:41:38.628Z,8.30
2022-09-26T02:44:38.519Z,7.30
2022-09-26T02:47:38.853Z,7.10
2022-09-26T02:50:53.415Z,7.57
2022-09-26T02:53:55.815Z,6.88
2022-09-26T02:57:08.469Z,6.93
2022-09-26T03:00:18.579Z,7.70
2022-09-26T03:03:30.986Z,7.35
2022-09-26T03:06:06.834Z,7.70
2022-09-26T03:08:44.074Z,7.55
2022-09-26T03:11:21.902Z,8.10
2022-09-26T03:13:54.759Z,8.35
2022-09-26T03:16:28.956Z,7.85
2022-09-26T03:19:12.731Z,7.13
2022-09-26T03:21:42.554Z,7.22
2022-09-26T03:24:14.650Z,7.35
2022-09-26T03:26:45.323Z,6.65
2022-09-26T03:29:15.953Z,6.93
2022-09-26T03:31:46.204Z,6.28
2022-09-26T03:34:16.081Z,6.13
2022-09-26T03:36:49.015Z,6.40
2022-09-26T03:39:20.336Z,6.63
2022-09-26T03:42:06.326Z,6.93
2022-09-26T03:44:36.087Z,6.75
2022-09-26T03:47:14.551Z,7.75
2022-09-26T03:49:46.116Z,6.90
2022-09-26T03:52:15.750Z,6.65
2022-09-26T03:54:47.361Z,6.72
2022-09-26T03:57:20.764Z,6.30
2022-09-26T03:59:56.236Z,6.97
2022-09-26T04:02:29.370Z,6.43
2022-09-26T04:05:14.454Z,7.50
2022-09-26T04:07:45.547Z,7.07
2022-09-26T04:10:15.564Z,7.30
2022-09-26T04:12:46.370Z,6.18
2022-09-26T04:15:17.005Z,6.32
2022-09-26T04:17:50.854Z,6.75
2022-09-26T04:20:21.437Z,6.72
2022-09-26T04:22:51.363Z,6.65
2022-09-26T04:25:20.495Z,6.65
2022-09-26T04:27:49.720Z,6.55
2022-09-26T04:30:20.089Z,6.55
2022-09-26T04:33:01.879Z,6.40
2022-09-26T04:35:46.033Z,6.68
2022-09-26T04:38:16.629Z,6.07
2022-09-26T04:40:46.412Z,6.20
2022-09-26T04:43:15.768Z,6.70
2022-09-26T04:45:45.080Z,6.50
2022-09-26T04:48:17.833Z,6.18
2022-09-26T04:51:10.506Z,5.90
2022-09-26T04:53:41.215Z,6.00
2022-09-26T04:56:19.924Z,5.90
2022-09-26T04:58:58.858Z,5.30
2022-09-26T05:01:36.323Z,5.47
2022-09-26T05:04:13.376Z,5.67
2022-09-26T05:06:43.690Z,5.97
2022-09-26T05:09:23.809Z,5.65
2022-09-26T05:11:58.050Z,5.30
2022-09-26T05:14:29.178Z,5.07
2022-09-26T05:16:59.348Z,5.10
2022-09-26T05:19:28.709Z,5.40
2022-09-26T05:22:32.313Z,5.32
2022-09-26T05:25:23.197Z,5.07
2022-09-26T05:27:54.334Z,5.03
2022-09-26T05:30:27.600Z,5.47
2022-09-26T05:32:56.910Z,4.80
2022-09-26T05:35:26.316Z,4.90
2022-09-26T05:38:06.398Z,5.18
2022-09-26T05:40:56.922Z,4.75
2022-09-26T05:43:30.661Z,5.43
2022-09-26T05:46:01.620Z,4.93
2022-09-26T05:48:38.892Z,5.03
2022-09-26T05:51:17.577Z,5.18
2022-09-26T05:53:48.431Z,5.10
2022-09-26T05:56:21.444Z,4.80
2022-09-26T05:59:23.309Z,5.95
2022-09-26T06:02:20.688Z,4.90
2022-09-26T06:05:01.096Z,4.38
2022-09-26T06:07:57.009Z,4.80
2022-09-26T06:10:40.590Z,5.72
2022-09-26T06:13:09.858Z,4.95
2022-09-26T06:15:53.135Z,4.68
2022-09-26T06:18:23.121Z,4.80
2022-09-26T06:20:52.392Z,4.68
2022-09-26T06:23:21.976Z,5.05
2022-09-26T06:25:51.588Z,4.63
2022-09-26T06:28:21.295Z,4.60
2022-09-26T06:30:52.357Z,4.20
2022-09-26T06:33:39.250Z,4.45
2022-09-26T06:36:29.098Z,4.78
2022-09-26T06:38:58.410Z,5.00
2022-09-26T06:41:31.002Z,4.70
2022-09-26T06:44:00.361Z,4.68
2022-09-26T06:46:48.317Z,4.40
2022-09-26T06:49:23.328Z,4.45
2022-09-26T06:52:09.597Z,4.30
2022-09-26T06:54:41.585Z,5.22
2022-09-26T06:57:15.250Z,4.60
2022-09-26T06:59:44.927Z,4.32
2022-09-26T07:02:29.756Z,4.30
2022-09-26T07:05:20.402Z,4.63
2022-09-26T07:07:55.898Z,4.57
2022-09-26T07:10:35.238Z,4.35
2022-09-26T07:13:08.602Z,4.30
2022-09-26T07:15:38.552Z,5.00
2022-09-26T07:18:27.671Z,4.22
2022-09-26T07:21:09.406Z,4.57
2022-09-26T07:24:09.685Z,4.65
2022-09-26T07:26:39.015Z,4.13
2022-09-26T07:29:09.705Z,4.45
2022-09-26T07:31:40.313Z,4.72
2022-09-26T07:34:11.513Z,4.57
2022-09-26T07:36:42.800Z,4.30
2022-09-26T07:39:13.451Z,3.90
2022-09-26T07:41:47.627Z,3.75
2022-09-26T07:45:09.328Z,4.22
2022-09-26T07:47:25.897Z,3.80
2022-09-26T07:50:18.060Z,3.60
2022-09-26T07:53:10.599Z,3.33
2022-09-26T07:56:10.885Z,3.42
2022-09-26T07:59:00.277Z,3.90
2022-09-26T08:01:45.937Z,3.83
2022-09-26T08:04:36.821Z,3.83
2022-09-26T08:07:06.241Z,3.47
2022-09-26T08:09:41.809Z,3.95
2022-09-26T08:12:15.371Z,3.53
2022-09-26T08:14:58.011Z,2.95
2022-09-26T08:17:36.784Z,3.13
2022-09-26T08:20:07.850Z,3.40
2022-09-26T08:22:37.144Z,3.35
2022-09-26T08:25:08.149Z,3.30
2022-09-26T08:28:02.068Z,3.47
2022-09-26T08:30:32.264Z,3.25
2022-09-26T08:33:04.596Z,3.28
2022-09-26T08:35:41.887Z,3.03
2022-09-26T08:41:40.349Z,3.47
2022-09-26T08:44:53.814Z,3.30
2022-09-26T08:47:54.453Z,3.55
2022-09-26T08:50:51.919Z,3.80
2022-09-26T08:53:31.480Z,3.72
2022-09-26T08:56:04.966Z,3.70
2022-09-26T08:58:55.904Z,3.90
2022-09-26T09:01:39.741Z,3.92
2022-09-26T09:04:47.229Z,3.97
2022-09-26T09:07:27.630Z,4.03
2022-09-26T09:10:05.988Z,4.03
2022-09-26T09:13:39.014Z,4.00
2022-09-26T09:17:05.116Z,4.53
2022-09-26T09:20:21.289Z,4.40
2022-09-26T09:23:54.170Z,4.40
2022-09-26T09:30:16.502Z,4.40
2022-09-26T09:33:20.853Z,4.68
2022-09-26T09:36:03.966Z,4.00
2022-09-26T09:38:42.219Z,4.35
2022-09-26T09:41:33.603Z,4.28
2022-09-26T09:44:11.712Z,4.60
2022-09-26T09:46:43.926Z,4.40
2022-09-26T09:49:25.268Z,5.00
2022-09-26T09:52:03.435Z,4.25
2022-09-26T09:54:37.201Z,5.50
2022-09-26T09:57:48.995Z,4.93
2022-09-26T10:00:19.517Z,5.75
2022-09-26T10:03:49.909Z,6.72
2022-09-26T10:06:46.456Z,6.88
2022-09-26T10:09:38.630Z,6.57
2022-09-26T10:12:32.952Z,6.95
2022-09-26T10:15:28.286Z,6.85
2022-09-26T10:18:26.779Z,6.65
2022-09-26T10:21:17.079Z,6.57
2022-09-26T10:23:51.866Z,6.70
2022-09-26T10:26:42.063Z,6.13
2022-09-26T10:29:37.735Z,5.95
2022-09-26T10:32:11.951Z,5.25
2022-09-26T10:35:03.077Z,4.57
2022-09-26T10:37:38.754Z,4.75
2022-09-26T10:40:47.731Z,4.60
2022-09-26T10:43:52.989Z,5.13
2022-09-26T10:46:46.294Z,4.97
2022-09-26T10:50:14.394Z,5.30
2022-09-26T10:53:12.530Z,5.27
2022-09-26T10:55:52.076Z,6.70
2022-09-26T10:58:26.397Z,6.00
2022-09-26T11:01:01.723Z,5.70
2022-09-26T11:03:46.977Z,5.40
2022-09-26T11:06:41.483Z,5.28
2022-09-26T11:09:22.143Z,5.13
2022-09-26T11:11:57.542Z,5.40
2022-09-26T11:14:33.651Z,4.85
2022-09-26T11:17:10.320Z,4.78
2022-09-26T11:19:59.328Z,5.53
2022-09-26T11:23:15.136Z,5.30
2022-09-26T11:26:17.905Z,5.20
2022-09-26T11:28:52.919Z,5.45
2022-09-26T11:31:44.900Z,5.72
2022-09-26T11:34:37.327Z,5.30
2022-09-26T11:37:52.150Z,5.32
2022-09-26T11:40:51.348Z,5.60
2022-09-26T11:43:54.069Z,5.60
2022-09-26T11:46:49.039Z,5.55
2022-09-26T11:50:00.259Z,6.38
2022-09-26T11:53:17.476Z,6.68
2022-09-26T11:59:28.665Z,6.83
2022-09-26T12:02:16.667Z,6.80
2022-09-26T12:04:51.862Z,6.70
2022-09-26T12:07:47.759Z,6.13
2022-09-26T12:10:28.363Z,7.47
2022-09-26T12:13:34.486Z,6.50
2022-09-26T12:16:12.322Z,6.00
2022-09-26T12:18:50.596Z,7.38
2022-09-26T12:21:40.052Z,5.55
2022-09-26T12:24:58.525Z,6.60
2022-09-26T12:27:44.720Z,6.68
2022-09-26T12:30:19.360Z,6.57
2022-09-26T12:33:36.483Z,6.03
2022-09-26T12:36:41.414Z,6.38
2022-09-26T12:39:26.252Z,6.28
2022-09-26T12:42:27.463Z,6.07
2022-09-26T12:45:22.534Z,5.53
2022-09-26T12:48:10.104Z,5.80
2022-09-26T12:50:57.605Z,6.18
2022-09-26T12:54:07.137Z,5.75
2022-09-26T12:56:51.383Z,5.72
2022-09-26T12:59:56.076Z,6.25
2022-09-26T13:02:44.187Z,5.93
2022-09-26T13:05:23.431Z,5.63
2022-09-26T13:08:16.516Z,4.72
2022-09-26T13:11:03.779Z,5.97
2022-09-26T13:16:37.315Z,5.65
2022-09-26T13:19:25.947Z,5.50
2022-09-26T13:22:05.382Z,6.00
2022-09-26T13:25:03.434Z,6.55
2022-09-26T13:27:42.184Z,6.10
2022-09-26T13:30:14.780Z,6.55
2022-09-26T13:32:48.459Z,6.35
2022-09-26T13:35:26.405Z,6.38
2022-09-26T13:38:08.337Z,6.82
2022-09-26T13:41:10.366Z,6.43
2022-09-26T13:43:56.451Z,6.63
2022-09-26T13:46:53.561Z,6.47
2022-09-26T13:49:31.074Z,5.90
2022-09-26T13:52:21.023Z,6.47
2022-09-26T13:55:03.022Z,5.93
2022-09-26T13:58:10.190Z,6.25
2022-09-26T14:00:42.435Z,6.00
2022-09-26T14:03:14.852Z,6.22
2022-09-26T14:05:53.517Z,6.00
2022-09-26T14:08:44.433Z,6.00
2022-09-26T14:11:31.181Z,6.22
2022-09-26T14:14:22.125Z,5.95
2022-09-26T14:16:55.813Z,6.10
2022-09-26T14:19:40.184Z,5.80
2022-09-26T14:22:24.604Z,6.28
2022-09-26T14:25:00.736Z,6.00
2022-09-26T14:27:44.525Z,6.00
2022-09-26T14:30:31.389Z,6.45
2022-09-26T14:33:04.552Z,5.95
2022-09-26T14:35:36.658Z,6.43
2022-09-26T14:38:15.514Z,6.20
2022-09-26T14:40:59.637Z,5.88
2022-09-26T14:43:31.431Z,6.05
2022-09-26T14:46:17.819Z,6.40
2022-09-26T14:48:47.771Z,5.85
2022-09-26T14:51:17.654Z,6.43
2022-09-26T14:53:50.295Z,6.30
2022-09-26T14:56:39.256Z,6.57
2022-09-26T14:59:18.263Z,6.10
2022-09-26T15:01:50.611Z,5.90
2022-09-26T15:04:28.559Z,7.05
2022-09-26T15:07:04.997Z,6.80
2022-09-26T15:10:05.827Z,6.63
2022-09-26T15:12:40.911Z,7.03
2022-09-26T15:15:44.738Z,7.35
2022-09-26T15:18:25.579Z,6.28
2022-09-26T15:21:20.668Z,6.85
2022-09-26T15:23:56.330Z,6.80
2022-09-26T15:26:33.076Z,6.80
2022-09-26T15:29:07.569Z,6.82
2022-09-26T15:31:45.338Z,6.55
2022-09-26T15:34:21.746Z,6.78
2022-09-26T15:36:57.636Z,7.03
2022-09-26T15:39:32.707Z,7.93
2022-09-26T15:42:25.956Z,8.40
2022-09-26T15:45:04.118Z,8.77
2022-09-26T15:47:33.788Z,8.82
2022-09-26T15:50:15.208Z,8.70
2022-09-26T15:52:58.381Z,9.05
2022-09-26T15:55:31.945Z,8.55
2022-09-26T15:58:07.686Z,8.80
2022-09-26T16:00:45.926Z,9.25
2022-09-26T16:03:35.751Z,9.38
2022-09-26T16:06:21.026Z,9.27
2022-09-26T16:09:11.860Z,8.25
2022-09-26T16:11:56.907Z,7.90
2022-09-26T16:14:50.321Z,9.07
2022-09-26T16:17:39.289Z,7.97
2022-09-26T16:20:15.617Z,6.80
2022-09-26T16:22:50.138Z,7.32
2022-09-26T16:25:58.898Z,7.60
2022-09-26T16:28:45.824Z,6.95
2022-09-26T16:31:28.853Z,7.07
2022-09-26T16:34:03.239Z,6.88
2022-09-26T16:36:36.245Z,7.25
2022-09-26T16:39:23.296Z,7.55
2022-09-26T16:42:03.460Z,7.25
2022-09-26T16:44:41.954Z,7.70
2022-09-26T16:47:43.605Z,7.20
2022-09-26T16:50:32.059Z,7.55
2022-09-26T16:53:07.255Z,6.53
2022-09-26T16:55:39.127Z,8.13
2022-09-26T16:58:08.480Z,7.57
2022-09-26T17:00:56.366Z,8.10
2022-09-26T17:03:27.423Z,7.20
2022-09-26T17:05:58.439Z,7.78
2022-09-26T17:08:29.257Z,7.45
2022-09-26T17:11:02.721Z,7.25
2022-09-26T17:13:36.154Z,8.20
2022-09-26T17:16:07.729Z,8.15
2022-09-26T17:18:40.724Z,7.50
2022-09-26T17:21:15.683Z,7.95
2022-09-26T17:23:45.189Z,8.20
2022-09-26T17:26:24.929Z,7.63
2022-09-26T17:28:55.048Z,8.65
2022-09-26T17:31:24.631Z,7.60
2022-09-26T17:33:57.027Z,12.85
2022-09-26T17:36:28.968Z,9.98
2022-09-26T17:39:01.887Z,9.93
2022-09-26T17:41:33.574Z,10.35
2022-09-26T17:44:02.927Z,12.02
2022-09-26T17:46:32.477Z,11.57
2022-09-26T17:49:06.146Z,14.40
2022-09-26T17:51:37.024Z,13.48
2022-09-26T17:54:21.367Z,18.00
2022-09-26T17:56:54.936Z,19.33
2022-09-26T17:59:26.619Z,17.08
2022-09-26T18:02:02.050Z,18.58
2022-09-26T18:04:32.050Z,19.80
2022-09-26T18:07:05.454Z,20.40
2022-09-26T18:09:36.927Z,21.30
2022-09-26T18:12:06.326Z,27.00
2022-09-26T18:14:37.384Z,27.70
2022-09-26T18:17:10.243Z,25.70
2022-09-26T18:19:39.465Z,26.67
2022-09-26T18:22:16.616Z,27.13
2022-09-26T18:24:49.571Z,26.88
2022-09-26T18:27:19.211Z,29.60
2022-09-26T18:29:50.929Z,37.58
2022-09-26T18:32:32.648Z,45.67
2022-09-26T18:35:01.991Z,48.03
2022-09-26T18:37:31.163Z,46.00
2022-09-26T18:40:04.126Z,47.67
2022-09-26T18:42:34.493Z,44.78
2022-09-26T18:45:07.149Z,42.70
2022-09-26T18:47:48.577Z,44.30
2022-09-26T18:50:35.180Z,43.80
2022-09-26T18:53:36.605Z,39.40
2022-09-26T18:56:26.427Z,41.63
2022-09-26T18:58:56.249Z,43.38
2022-09-26T19:01:33.033Z,38.60
2022-09-26T19:04:05.428Z,34.65
2022-09-26T19:07:00.224Z,31.08
2022-09-26T19:09:35.048Z,19.67
2022-09-26T19:12:05.479Z,34.03
2022-09-26T19:14:34.708Z,30.63
2022-09-26T19:17:06.990Z,29.02
2022-09-26T19:19:41.610Z,27.92
2022-09-26T19:22:17.665Z,28.15
2022-09-26T19:25:01.418Z,19.73
2022-09-26T19:27:54.225Z,18.67
2022-09-26T19:30:24.268Z,22.27
2022-09-26T19:32:57.096Z,22.88
2022-09-26T19:35:40.449Z,19.70
2022-09-26T19:38:25.624Z,17.92
2022-09-26T19:40:57.905Z,20.95
2022-09-26T19:43:27.072Z,18.48
2022-09-26T19:45:56.424Z,19.23
2022-09-26T19:48:25.928Z,14.18
2022-09-26T19:50:55.410Z,14.70
2022-09-26T19:53:25.679Z,13.70
2022-09-26T19:55:56.711Z,13.35
2022-09-26T19:58:30.907Z,13.20
2022-09-26T20:01:06.727Z,14.30
2022-09-26T20:03:44.769Z,16.27
2022-09-26T20:06:25.691Z,14.63
2022-09-26T20:09:01.755Z,15.02
2022-09-26T20:11:31.191Z,14.15
2022-09-26T20:14:18.621Z,16.45
2022-09-26T20:16:47.859Z,15.65
2022-09-26T20:19:27.899Z,15.77
2022-09-26T20:22:01.010Z,15.45
2022-09-26T20:24:32.342Z,14.00
2022-09-26T20:27:04.915Z,14.88
2022-09-26T20:29:54.409Z,15.27
2022-09-26T20:32:26.587Z,15.07
2022-09-26T20:35:03.133Z,14.93
2022-09-26T20:37:42.636Z,13.88
2022-09-26T20:40:25.165Z,13.30
2022-09-26T20:42:59.734Z,14.07
2022-09-26T20:45:41.760Z,12.30
2022-09-26T20:48:24.144Z,11.90
2022-09-26T20:50:56.364Z,13.80
2022-09-26T20:53:27.454Z,11.77
2022-09-26T20:55:59.804Z,12.77
2022-09-26T20:58:29.324Z,10.73
2022-09-26T21:01:02.773Z,11.18
2022-09-26T21:03:32.552Z,13.30
2022-09-26T21:06:07.205Z,12.50
2022-09-26T21:08:37.007Z,13.38
2022-09-26T21:11:08.634Z,14.40
2022-09-26T21:13:37.832Z,15.43
2022-09-26T21:16:07.704Z,16.55
2022-09-26T21:18:40.889Z,16.05
2022-09-26T21:21:21.364Z,16.42
2022-09-26T21:24:01.668Z,15.38
2022-09-26T21:26:39.906Z,14.77
2022-09-26T21:29:20.708Z,15.32
2022-09-26T21:31:52.650Z,16.30
2022-09-26T21:34:29.118Z,14.73
2022-09-26T21:36:59.939Z,14.52
2022-09-26T21:39:29.744Z,11.93
2022-09-26T21:42:03.055Z,13.48
2022-09-26T21:44:49.762Z,14.90
2022-09-26T21:47:22.854Z,13.18
2022-09-26T21:49:52.678Z,12.95
2022-09-26T21:52:29.478Z,13.27
2022-09-26T21:55:02.281Z,13.48
2022-09-26T21:57:46.883Z,12.27
2022-09-26T22:00:17.208Z,11.85
2022-09-26T22:02:46.859Z,10.68
2022-09-26T22:05:19.684Z,12.10
2022-09-26T22:07:54.816Z,11.05
2022-09-26T22:10:27.411Z,11.73
2022-09-26T22:13:00.368Z,12.43
2022-09-26T22:15:44.542Z,11.00
2022-09-26T22:18:14.540Z,12.32
2022-09-26T22:20:43.934Z,10.75
2022-09-26T22:23:22.296Z,11.02
2022-09-26T22:25:54.684Z,10.65
2022-09-26T22:28:25.301Z,10.73
2022-09-26T22:31:09.764Z,11.13
2022-09-26T22:33:42.592Z,9.98
2022-09-26T22:36:15.818Z,9.88
2022-09-26T22:38:51.324Z,10.05
2022-09-26T22:41:21.932Z,10.30
2022-09-26T22:43:55.808Z,10.10
2022-09-26T22:46:25.472Z,9.55
2022-09-26T22:48:55.255Z,8.85
2022-09-26T22:51:24.869Z,8.30
2022-09-26T22:53:54.718Z,8.88
2022-09-26T22:56:27.175Z,7.90
2022-09-26T22:58:57.100Z,8.50
2022-09-26T23:01:29.537Z,8.07
2022-09-26T23:03:59.806Z,8.02
2022-09-26T23:06:29.800Z,7.40
2022-09-26T23:08:59.850Z,7.40
2022-09-26T23:11:29.435Z,7.53
2022-09-26T23:13:58.625Z,7.47
2022-09-26T23:16:30.703Z,7.25
2022-09-26T23:19:00.536Z,7.60
2022-09-26T23:21:29.808Z,7.32
2022-09-26T23:23:59.524Z,7.25
2022-09-26T23:26:32.783Z,7.45
2022-09-26T23:29:10.961Z,6.80
2022-09-26T23:31:40.567Z,7.20
2022-09-26T23:34:10.138Z,7.00
2022-09-26T23:36:45.578Z,7.00
2022-09-26T23:39:15.006Z,7.10
2022-09-26T23:41:44.551Z,7.78
2022-09-26T23:44:16.833Z,7.43
2022-09-26T23:46:46.366Z,7.70
2022-09-26T23:49:15.560Z,8.07
2022-09-26T23:51:44.915Z,7.95
2022-09-26T23:54:14.596Z,8.25
2022-09-26T23:56:45.453Z,9.30
2022-09-26T23:59:15.601Z,8.82
